sensor_id;sensor_type;location;lat;lon;timestamp;P1;durP1;ratioP1;P2;durP2;ratioP2
79019;SDS011;72857;44.740;37.770;2024-02-23T00:00:44;54.92;;;20.35;;
79019;SDS011;72857;44.740;37.770;2024-02-23T00:01:47;61.25;;;19.15;;
79019;SDS011;72857;44.740;37.770;2024-02-23T00:02:49;63.17;;;20.40;;
79019;SDS011;72857;44.740;37.770;2024-02-23T00:03:50;56.80;;;20.88;;
79019;SDS011;72857;44.740;37.770;2024-02-23T00:04:52;50.22;;;20.00;;
79019;SDS011;72857;44.740;37.770;2024-02-23T00:05:53;50.63;;;19.88;;
79019;SDS011;72857;44.740;37.770;2024-02-23T00:06:55;50.90;;;18.63;;
79019;SDS011;72857;44.740;37.770;2024-02-23T00:07:56;48.53;;;17.17;;
79019;SDS011;72857;44.740;37.770;2024-02-23T00:08:58;54.70;;;19.10;;
79019;SDS011;72857;44.740;37.770;2024-02-23T00:09:59;59.47;;;18.10;;
79019;SDS011;72857;44.740;37.770;2024-02-23T00:11:00;41.50;;;17.27;;
79019;SDS011;72857;44.740;37.770;2024-02-23T00:12:02;51.63;;;16.90;;
79019;SDS011;72857;44.740;37.770;2024-02-23T00:13:04;49.25;;;18.33;;
79019;SDS011;72857;44.740;37.770;2024-02-23T00:14:05;42.63;;;17.83;;
79019;SDS011;72857;44.740;37.770;2024-02-23T00:15:07;47.78;;;18.83;;
79019;SDS011;72857;44.740;37.770;2024-02-23T00:16:08;55.83;;;17.08;;
79019;SDS011;72857;44.740;37.770;2024-02-23T00:17:10;54.60;;;18.50;;
79019;SDS011;72857;44.740;37.770;2024-02-23T00:18:12;47.08;;;18.10;;
79019;SDS011;72857;44.740;37.770;2024-02-23T00:19:15;44.70;;;18.77;;
79019;SDS011;72857;44.740;37.770;2024-02-23T00:20:18;50.83;;;18.85;;
79019;SDS011;72857;44.740;37.770;2024-02-23T00:21:20;45.03;;;18.77;;
79019;SDS011;72857;44.740;37.770;2024-02-23T00:22:21;56.05;;;17.08;;
79019;SDS011;72857;44.740;37.770;2024-02-23T00:23:23;55.72;;;17.95;;
79019;SDS011;72857;44.740;37.770;2024-02-23T00:24:25;46.72;;;19.23;;
79019;SDS011;72857;44.740;37.770;2024-02-23T00:25:26;58.45;;;18.23;;
79019;SDS011;72857;44.740;37.770;2024-02-23T00:26:28;67.00;;;20.35;;
79019;SDS011;72857;44.740;37.770;2024-02-23T00:27:30;69.05;;;23.25;;
79019;SDS011;72857;44.740;37.770;2024-02-23T00:28:31;52.20;;;18.63;;
79019;SDS011;72857;44.740;37.770;2024-02-23T00:29:33;47.00;;;18.35;;
79019;SDS011;72857;44.740;37.770;2024-02-23T00:30:34;53.55;;;19.70;;
79019;SDS011;72857;44.740;37.770;2024-02-23T00:31:40;50.63;;;18.80;;
79019;SDS011;72857;44.740;37.770;2024-02-23T00:32:41;62.72;;;19.35;;
79019;SDS011;72857;44.740;37.770;2024-02-23T00:33:43;65.90;;;19.80;;
79019;SDS011;72857;44.740;37.770;2024-02-23T00:34:44;69.30;;;22.38;;
79019;SDS011;72857;44.740;37.770;2024-02-23T00:35:46;57.53;;;19.73;;
79019;SDS011;72857;44.740;37.770;2024-02-23T00:36:47;63.45;;;18.90;;
79019;SDS011;72857;44.740;37.770;2024-02-23T00:37:49;61.95;;;18.85;;
79019;SDS011;72857;44.740;37.770;2024-02-23T00:38:51;59.28;;;21.42;;
79019;SDS011;72857;44.740;37.770;2024-02-23T00:39:52;49.70;;;18.25;;
79019;SDS011;72857;44.740;37.770;2024-02-23T00:40:54;52.83;;;18.10;;
79019;SDS011;72857;44.740;37.770;2024-02-23T00:41:55;57.47;;;18.20;;
79019;SDS011;72857;44.740;37.770;2024-02-23T00:42:56;43.92;;;16.13;;
79019;SDS011;72857;44.740;37.770;2024-02-23T00:44:01;38.20;;;13.75;;
79019;SDS011;72857;44.740;37.770;2024-02-23T00:45:06;32.70;;;14.57;;
79019;SDS011;72857;44.740;37.770;2024-02-23T00:46:08;30.67;;;13.45;;
79019;SDS011;72857;44.740;37.770;2024-02-23T00:47:09;46.92;;;16.10;;
79019;SDS011;72857;44.740;37.770;2024-02-23T00:48:11;34.45;;;13.98;;
79019;SDS011;72857;44.740;37.770;2024-02-23T00:49:13;36.55;;;13.48;;
79019;SDS011;72857;44.740;37.770;2024-02-23T00:50:15;38.88;;;13.05;;
79019;SDS011;72857;44.740;37.770;2024-02-23T00:51:17;50.63;;;14.10;;
79019;SDS011;72857;44.740;37.770;2024-02-23T00:52:18;40.30;;;15.18;;
79019;SDS011;72857;44.740;37.770;2024-02-23T00:53:19;40.55;;;14.50;;
79019;SDS011;72857;44.740;37.770;2024-02-23T00:54:21;36.70;;;15.25;;
79019;SDS011;72857;44.740;37.770;2024-02-23T00:55:23;53.97;;;17.23;;
79019;SDS011;72857;44.740;37.770;2024-02-23T00:56:26;35.67;;;13.75;;
79019;SDS011;72857;44.740;37.770;2024-02-23T00:57:28;55.78;;;16.98;;
79019;SDS011;72857;44.740;37.770;2024-02-23T00:58:31;50.70;;;16.90;;
79019;SDS011;72857;44.740;37.770;2024-02-23T00:59:32;51.17;;;17.98;;
79019;SDS011;72857;44.740;37.770;2024-02-23T01:00:33;80.53;;;19.88;;
79019;SDS011;72857;44.740;37.770;2024-02-23T01:01:35;55.55;;;16.65;;
79019;SDS011;72857;44.740;37.770;2024-02-23T01:02:37;53.22;;;16.80;;
79019;SDS011;72857;44.740;37.770;2024-02-23T01:03:39;56.30;;;19.02;;
79019;SDS011;72857;44.740;37.770;2024-02-23T01:04:40;53.28;;;18.85;;
79019;SDS011;72857;44.740;37.770;2024-02-23T01:05:41;67.30;;;19.10;;
79019;SDS011;72857;44.740;37.770;2024-02-23T01:06:43;59.30;;;19.20;;
79019;SDS011;72857;44.740;37.770;2024-02-23T01:07:44;46.03;;;17.38;;
79019;SDS011;72857;44.740;37.770;2024-02-23T01:08:46;61.05;;;18.30;;
79019;SDS011;72857;44.740;37.770;2024-02-23T01:09:48;56.55;;;17.58;;
79019;SDS011;72857;44.740;37.770;2024-02-23T01:10:49;50.83;;;18.67;;
79019;SDS011;72857;44.740;37.770;2024-02-23T01:11:51;42.85;;;17.10;;
79019;SDS011;72857;44.740;37.770;2024-02-23T01:12:52;47.38;;;16.75;;
79019;SDS011;72857;44.740;37.770;2024-02-23T01:13:53;54.90;;;17.25;;
79019;SDS011;72857;44.740;37.770;2024-02-23T01:14:55;44.45;;;16.95;;
79019;SDS011;72857;44.740;37.770;2024-02-23T01:15:56;64.50;;;17.63;;
79019;SDS011;72857;44.740;37.770;2024-02-23T01:16:57;65.15;;;18.38;;
79019;SDS011;72857;44.740;37.770;2024-02-23T01:17:59;55.20;;;16.85;;
79019;SDS011;72857;44.740;37.770;2024-02-23T01:19:01;76.20;;;22.30;;
79019;SDS011;72857;44.740;37.770;2024-02-23T01:20:03;54.90;;;17.02;;
79019;SDS011;72857;44.740;37.770;2024-02-23T01:21:05;60.10;;;18.08;;
79019;SDS011;72857;44.740;37.770;2024-02-23T01:22:07;56.85;;;17.73;;
79019;SDS011;72857;44.740;37.770;2024-02-23T01:23:09;53.30;;;18.45;;
79019;SDS011;72857;44.740;37.770;2024-02-23T01:24:10;77.10;;;20.08;;
79019;SDS011;72857;44.740;37.770;2024-02-23T01:25:12;70.38;;;18.85;;
79019;SDS011;72857;44.740;37.770;2024-02-23T01:26:16;65.20;;;19.42;;
79019;SDS011;72857;44.740;37.770;2024-02-23T01:27:17;66.90;;;17.38;;
79019;SDS011;72857;44.740;37.770;2024-02-23T01:28:19;58.70;;;17.95;;
79019;SDS011;72857;44.740;37.770;2024-02-23T01:29:21;63.35;;;20.55;;
79019;SDS011;72857;44.740;37.770;2024-02-23T01:30:26;74.85;;;19.95;;
79019;SDS011;72857;44.740;37.770;2024-02-23T01:31:27;91.78;;;19.67;;
79019;SDS011;72857;44.740;37.770;2024-02-23T01:32:29;83.28;;;20.23;;
79019;SDS011;72857;44.740;37.770;2024-02-23T01:33:30;75.13;;;19.88;;
79019;SDS011;72857;44.740;37.770;2024-02-23T01:34:32;94.15;;;22.42;;
79019;SDS011;72857;44.740;37.770;2024-02-23T01:35:34;68.88;;;18.88;;
79019;SDS011;72857;44.740;37.770;2024-02-23T01:36:37;68.68;;;19.63;;
79019;SDS011;72857;44.740;37.770;2024-02-23T01:37:40;64.97;;;18.38;;
79019;SDS011;72857;44.740;37.770;2024-02-23T01:38:41;54.08;;;17.40;;
79019;SDS011;72857;44.740;37.770;2024-02-23T01:39:43;43.85;;;18.92;;
79019;SDS011;72857;44.740;37.770;2024-02-23T01:40:45;53.90;;;16.83;;
79019;SDS011;72857;44.740;37.770;2024-02-23T01:41:48;50.22;;;16.75;;
79019;SDS011;72857;44.740;37.770;2024-02-23T01:42:59;52.83;;;16.98;;
79019;SDS011;72857;44.740;37.770;2024-02-23T01:44:02;47.30;;;15.95;;
79019;SDS011;72857;44.740;37.770;2024-02-23T01:45:04;53.38;;;16.23;;
79019;SDS011;72857;44.740;37.770;2024-02-23T01:46:06;45.00;;;17.23;;
79019;SDS011;72857;44.740;37.770;2024-02-23T01:47:07;56.40;;;18.50;;
79019;SDS011;72857;44.740;37.770;2024-02-23T01:48:09;46.08;;;16.70;;
79019;SDS011;72857;44.740;37.770;2024-02-23T01:49:11;61.42;;;18.73;;
79019;SDS011;72857;44.740;37.770;2024-02-23T01:50:13;52.78;;;17.45;;
79019;SDS011;72857;44.740;37.770;2024-02-23T01:51:14;39.75;;;16.52;;
79019;SDS011;72857;44.740;37.770;2024-02-23T01:52:16;46.10;;;15.90;;
79019;SDS011;72857;44.740;37.770;2024-02-23T01:53:18;48.40;;;17.13;;
79019;SDS011;72857;44.740;37.770;2024-02-23T01:54:20;47.13;;;16.00;;
79019;SDS011;72857;44.740;37.770;2024-02-23T01:55:21;56.40;;;16.88;;
79019;SDS011;72857;44.740;37.770;2024-02-23T01:56:24;45.88;;;17.45;;
79019;SDS011;72857;44.740;37.770;2024-02-23T01:57:25;58.90;;;17.60;;
79019;SDS011;72857;44.740;37.770;2024-02-23T01:58:27;50.38;;;17.48;;
79019;SDS011;72857;44.740;37.770;2024-02-23T01:59:30;36.85;;;15.13;;
79019;SDS011;72857;44.740;37.770;2024-02-23T02:00:32;41.70;;;18.50;;
79019;SDS011;72857;44.740;37.770;2024-02-23T02:01:35;45.63;;;18.60;;
79019;SDS011;72857;44.740;37.770;2024-02-23T02:02:37;38.67;;;16.33;;
79019;SDS011;72857;44.740;37.770;2024-02-23T02:03:40;53.67;;;16.20;;
79019;SDS011;72857;44.740;37.770;2024-02-23T02:04:41;46.70;;;18.35;;
79019;SDS011;72857;44.740;37.770;2024-02-23T02:05:42;55.67;;;18.25;;
79019;SDS011;72857;44.740;37.770;2024-02-23T02:06:46;50.80;;;17.27;;
79019;SDS011;72857;44.740;37.770;2024-02-23T02:07:49;47.67;;;15.93;;
79019;SDS011;72857;44.740;37.770;2024-02-23T02:08:54;43.63;;;17.05;;
79019;SDS011;72857;44.740;37.770;2024-02-23T02:09:56;40.70;;;16.15;;
79019;SDS011;72857;44.740;37.770;2024-02-23T02:10:57;44.65;;;17.33;;
79019;SDS011;72857;44.740;37.770;2024-02-23T02:11:59;34.95;;;14.48;;
79019;SDS011;72857;44.740;37.770;2024-02-23T02:13:03;37.30;;;16.20;;
79019;SDS011;72857;44.740;37.770;2024-02-23T02:14:06;43.50;;;16.35;;
79019;SDS011;72857;44.740;37.770;2024-02-23T02:15:08;44.30;;;16.38;;
79019;SDS011;72857;44.740;37.770;2024-02-23T02:16:09;42.53;;;17.20;;
79019;SDS011;72857;44.740;37.770;2024-02-23T02:17:12;40.00;;;18.60;;
79019;SDS011;72857;44.740;37.770;2024-02-23T02:18:13;37.85;;;16.30;;
79019;SDS011;72857;44.740;37.770;2024-02-23T02:19:14;33.75;;;13.88;;
79019;SDS011;72857;44.740;37.770;2024-02-23T02:20:16;36.83;;;12.90;;
79019;SDS011;72857;44.740;37.770;2024-02-23T02:21:19;24.83;;;11.88;;
79019;SDS011;72857;44.740;37.770;2024-02-23T02:22:24;25.23;;;11.48;;
79019;SDS011;72857;44.740;37.770;2024-02-23T02:23:25;28.67;;;11.65;;
79019;SDS011;72857;44.740;37.770;2024-02-23T02:24:27;27.48;;;11.57;;
79019;SDS011;72857;44.740;37.770;2024-02-23T02:25:29;29.13;;;11.65;;
79019;SDS011;72857;44.740;37.770;2024-02-23T02:26:30;28.05;;;12.10;;
79019;SDS011;72857;44.740;37.770;2024-02-23T02:27:32;36.03;;;13.45;;
79019;SDS011;72857;44.740;37.770;2024-02-23T02:28:33;31.73;;;12.40;;
79019;SDS011;72857;44.740;37.770;2024-02-23T02:29:35;33.13;;;12.63;;
79019;SDS011;72857;44.740;37.770;2024-02-23T02:30:37;25.48;;;12.38;;
79019;SDS011;72857;44.740;37.770;2024-02-23T02:31:39;30.80;;;12.10;;
79019;SDS011;72857;44.740;37.770;2024-02-23T02:32:40;25.75;;;12.10;;
79019;SDS011;72857;44.740;37.770;2024-02-23T02:33:42;25.85;;;12.13;;
79019;SDS011;72857;44.740;37.770;2024-02-23T02:34:43;26.25;;;13.15;;
79019;SDS011;72857;44.740;37.770;2024-02-23T02:35:45;26.92;;;11.90;;
79019;SDS011;72857;44.740;37.770;2024-02-23T02:36:46;30.35;;;12.82;;
79019;SDS011;72857;44.740;37.770;2024-02-23T02:37:47;23.25;;;12.38;;
79019;SDS011;72857;44.740;37.770;2024-02-23T02:38:50;21.80;;;10.65;;
79019;SDS011;72857;44.740;37.770;2024-02-23T02:39:51;22.40;;;11.57;;
79019;SDS011;72857;44.740;37.770;2024-02-23T02:40:53;27.20;;;11.23;;
79019;SDS011;72857;44.740;37.770;2024-02-23T02:41:54;19.92;;;11.25;;
79019;SDS011;72857;44.740;37.770;2024-02-23T02:42:56;22.15;;;11.05;;
79019;SDS011;72857;44.740;37.770;2024-02-23T02:43:58;24.95;;;11.25;;
79019;SDS011;72857;44.740;37.770;2024-02-23T02:44:59;24.88;;;12.38;;
79019;SDS011;72857;44.740;37.770;2024-02-23T02:46:01;25.27;;;13.13;;
79019;SDS011;72857;44.740;37.770;2024-02-23T02:47:03;38.80;;;15.13;;
79019;SDS011;72857;44.740;37.770;2024-02-23T02:48:04;20.92;;;12.35;;
79019;SDS011;72857;44.740;37.770;2024-02-23T02:49:06;24.15;;;11.85;;
79019;SDS011;72857;44.740;37.770;2024-02-23T02:50:07;22.20;;;11.40;;
79019;SDS011;72857;44.740;37.770;2024-02-23T02:51:10;23.77;;;11.63;;
79019;SDS011;72857;44.740;37.770;2024-02-23T02:52:11;22.65;;;11.27;;
79019;SDS011;72857;44.740;37.770;2024-02-23T02:53:12;22.23;;;11.48;;
79019;SDS011;72857;44.740;37.770;2024-02-23T02:54:14;22.45;;;11.95;;
79019;SDS011;72857;44.740;37.770;2024-02-23T02:55:17;25.30;;;11.40;;
79019;SDS011;72857;44.740;37.770;2024-02-23T02:56:19;34.40;;;14.90;;
79019;SDS011;72857;44.740;37.770;2024-02-23T02:57:20;36.70;;;15.48;;
79019;SDS011;72857;44.740;37.770;2024-02-23T02:58:22;46.67;;;17.75;;
79019;SDS011;72857;44.740;37.770;2024-02-23T02:59:23;41.45;;;17.85;;
79019;SDS011;72857;44.740;37.770;2024-02-23T03:00:24;50.22;;;18.17;;
79019;SDS011;72857;44.740;37.770;2024-02-23T03:01:26;38.25;;;17.10;;
79019;SDS011;72857;44.740;37.770;2024-02-23T03:02:27;39.38;;;16.45;;
79019;SDS011;72857;44.740;37.770;2024-02-23T03:03:29;49.05;;;18.40;;
79019;SDS011;72857;44.740;37.770;2024-02-23T03:04:30;41.88;;;17.00;;
79019;SDS011;72857;44.740;37.770;2024-02-23T03:05:32;42.45;;;16.05;;
79019;SDS011;72857;44.740;37.770;2024-02-23T03:06:33;36.75;;;15.05;;
79019;SDS011;72857;44.740;37.770;2024-02-23T03:07:35;40.25;;;15.02;;
79019;SDS011;72857;44.740;37.770;2024-02-23T03:08:36;36.08;;;15.27;;
79019;SDS011;72857;44.740;37.770;2024-02-23T03:09:38;30.85;;;16.23;;
79019;SDS011;72857;44.740;37.770;2024-02-23T03:10:39;36.05;;;17.00;;
79019;SDS011;72857;44.740;37.770;2024-02-23T03:11:41;35.33;;;15.77;;
79019;SDS011;72857;44.740;37.770;2024-02-23T03:12:42;42.88;;;16.52;;
79019;SDS011;72857;44.740;37.770;2024-02-23T03:13:43;40.72;;;16.90;;
79019;SDS011;72857;44.740;37.770;2024-02-23T03:14:45;37.20;;;16.95;;
79019;SDS011;72857;44.740;37.770;2024-02-23T03:15:46;37.35;;;15.65;;
79019;SDS011;72857;44.740;37.770;2024-02-23T03:16:48;36.50;;;15.45;;
79019;SDS011;72857;44.740;37.770;2024-02-23T03:17:50;32.65;;;15.35;;
79019;SDS011;72857;44.740;37.770;2024-02-23T03:18:52;36.50;;;15.68;;
79019;SDS011;72857;44.740;37.770;2024-02-23T03:19:55;35.60;;;16.35;;
79019;SDS011;72857;44.740;37.770;2024-02-23T03:20:56;41.95;;;14.45;;
79019;SDS011;72857;44.740;37.770;2024-02-23T03:21:58;34.80;;;15.60;;
79019;SDS011;72857;44.740;37.770;2024-02-23T03:23:00;36.47;;;16.23;;
79019;SDS011;72857;44.740;37.770;2024-02-23T03:24:04;39.58;;;16.98;;
79019;SDS011;72857;44.740;37.770;2024-02-23T03:25:06;35.53;;;15.80;;
79019;SDS011;72857;44.740;37.770;2024-02-23T03:26:10;44.95;;;18.05;;
79019;SDS011;72857;44.740;37.770;2024-02-23T03:27:12;43.20;;;16.90;;
79019;SDS011;72857;44.740;37.770;2024-02-23T03:28:13;32.20;;;16.65;;
79019;SDS011;72857;44.740;37.770;2024-02-23T03:29:15;41.05;;;15.75;;
79019;SDS011;72857;44.740;37.770;2024-02-23T03:30:16;38.47;;;15.80;;
79019;SDS011;72857;44.740;37.770;2024-02-23T03:31:18;31.75;;;14.32;;
79019;SDS011;72857;44.740;37.770;2024-02-23T03:32:19;33.38;;;14.77;;
79019;SDS011;72857;44.740;37.770;2024-02-23T03:33:21;34.78;;;15.55;;
79019;SDS011;72857;44.740;37.770;2024-02-23T03:34:22;32.42;;;15.10;;
79019;SDS011;72857;44.740;37.770;2024-02-23T03:35:24;37.95;;;15.23;;
79019;SDS011;72857;44.740;37.770;2024-02-23T03:36:25;35.60;;;15.65;;
79019;SDS011;72857;44.740;37.770;2024-02-23T03:37:27;33.75;;;15.48;;
79019;SDS011;72857;44.740;37.770;2024-02-23T03:38:29;40.20;;;16.05;;
79019;SDS011;72857;44.740;37.770;2024-02-23T03:39:30;34.33;;;16.85;;
79019;SDS011;72857;44.740;37.770;2024-02-23T03:40:33;35.67;;;16.58;;
79019;SDS011;72857;44.740;37.770;2024-02-23T03:41:36;29.52;;;15.02;;
79019;SDS011;72857;44.740;37.770;2024-02-23T03:42:38;39.90;;;17.20;;
79019;SDS011;72857;44.740;37.770;2024-02-23T03:43:39;39.63;;;16.20;;
79019;SDS011;72857;44.740;37.770;2024-02-23T03:44:40;30.70;;;15.85;;
79019;SDS011;72857;44.740;37.770;2024-02-23T03:45:43;36.72;;;17.17;;
79019;SDS011;72857;44.740;37.770;2024-02-23T03:46:45;38.60;;;16.83;;
79019;SDS011;72857;44.740;37.770;2024-02-23T03:47:46;42.53;;;18.33;;
79019;SDS011;72857;44.740;37.770;2024-02-23T03:48:47;44.00;;;17.23;;
79019;SDS011;72857;44.740;37.770;2024-02-23T03:49:49;43.65;;;19.13;;
79019;SDS011;72857;44.740;37.770;2024-02-23T03:50:50;42.53;;;17.38;;
79019;SDS011;72857;44.740;37.770;2024-02-23T03:51:52;45.30;;;17.17;;
79019;SDS011;72857;44.740;37.770;2024-02-23T03:52:53;34.28;;;14.75;;
79019;SDS011;72857;44.740;37.770;2024-02-23T03:53:55;39.47;;;17.05;;
79019;SDS011;72857;44.740;37.770;2024-02-23T03:54:56;48.63;;;18.63;;
79019;SDS011;72857;44.740;37.770;2024-02-23T03:55:58;52.78;;;16.77;;
79019;SDS011;72857;44.740;37.770;2024-02-23T03:56:59;46.08;;;15.82;;
79019;SDS011;72857;44.740;37.770;2024-02-23T03:58:01;28.63;;;15.38;;
79019;SDS011;72857;44.740;37.770;2024-02-23T03:59:02;41.65;;;16.63;;
79019;SDS011;72857;44.740;37.770;2024-02-23T04:00:04;42.67;;;15.60;;
79019;SDS011;72857;44.740;37.770;2024-02-23T04:01:12;41.03;;;16.23;;
79019;SDS011;72857;44.740;37.770;2024-02-23T04:02:14;31.70;;;15.10;;
79019;SDS011;72857;44.740;37.770;2024-02-23T04:03:15;42.08;;;15.90;;
79019;SDS011;72857;44.740;37.770;2024-02-23T04:04:16;36.45;;;16.60;;
79019;SDS011;72857;44.740;37.770;2024-02-23T04:05:18;42.10;;;15.45;;
79019;SDS011;72857;44.740;37.770;2024-02-23T04:06:20;39.80;;;15.90;;
79019;SDS011;72857;44.740;37.770;2024-02-23T04:07:22;35.97;;;15.65;;
79019;SDS011;72857;44.740;37.770;2024-02-23T04:08:23;43.58;;;16.65;;
79019;SDS011;72857;44.740;37.770;2024-02-23T04:09:25;38.15;;;16.10;;
79019;SDS011;72857;44.740;37.770;2024-02-23T04:10:26;41.65;;;15.48;;
79019;SDS011;72857;44.740;37.770;2024-02-23T04:11:28;27.67;;;14.00;;
79019;SDS011;72857;44.740;37.770;2024-02-23T04:12:29;30.13;;;14.68;;
79019;SDS011;72857;44.740;37.770;2024-02-23T04:13:31;33.83;;;15.30;;
79019;SDS011;72857;44.740;37.770;2024-02-23T04:14:33;34.70;;;14.52;;
79019;SDS011;72857;44.740;37.770;2024-02-23T04:15:37;28.05;;;13.95;;
79019;SDS011;72857;44.740;37.770;2024-02-23T04:16:38;31.13;;;14.23;;
79019;SDS011;72857;44.740;37.770;2024-02-23T04:17:40;27.08;;;13.02;;
79019;SDS011;72857;44.740;37.770;2024-02-23T04:18:41;37.15;;;15.27;;
79019;SDS011;72857;44.740;37.770;2024-02-23T04:19:43;37.25;;;16.48;;
79019;SDS011;72857;44.740;37.770;2024-02-23T04:20:44;48.60;;;16.10;;
79019;SDS011;72857;44.740;37.770;2024-02-23T04:21:46;35.30;;;14.50;;
79019;SDS011;72857;44.740;37.770;2024-02-23T04:22:47;31.67;;;14.85;;
79019;SDS011;72857;44.740;37.770;2024-02-23T04:23:49;29.27;;;14.68;;
79019;SDS011;72857;44.740;37.770;2024-02-23T04:24:50;35.58;;;15.20;;
79019;SDS011;72857;44.740;37.770;2024-02-23T04:25:51;38.55;;;15.88;;
79019;SDS011;72857;44.740;37.770;2024-02-23T04:26:53;37.08;;;14.82;;
79019;SDS011;72857;44.740;37.770;2024-02-23T04:27:54;46.08;;;14.63;;
79019;SDS011;72857;44.740;37.770;2024-02-23T04:28:56;34.20;;;14.75;;
79019;SDS011;72857;44.740;37.770;2024-02-23T04:29:57;36.92;;;14.93;;
79019;SDS011;72857;44.740;37.770;2024-02-23T04:30:59;34.22;;;14.45;;
79019;SDS011;72857;44.740;37.770;2024-02-23T04:32:01;33.05;;;15.10;;
79019;SDS011;72857;44.740;37.770;2024-02-23T04:33:03;44.00;;;15.43;;
79019;SDS011;72857;44.740;37.770;2024-02-23T04:34:04;34.85;;;15.32;;
79019;SDS011;72857;44.740;37.770;2024-02-23T04:35:06;30.05;;;14.93;;
79019;SDS011;72857;44.740;37.770;2024-02-23T04:36:08;34.63;;;15.52;;
79019;SDS011;72857;44.740;37.770;2024-02-23T04:37:09;36.63;;;15.75;;
79019;SDS011;72857;44.740;37.770;2024-02-23T04:38:11;34.50;;;14.00;;
79019;SDS011;72857;44.740;37.770;2024-02-23T04:39:12;31.80;;;14.77;;
79019;SDS011;72857;44.740;37.770;2024-02-23T04:40:14;33.80;;;15.15;;
79019;SDS011;72857;44.740;37.770;2024-02-23T04:41:19;36.88;;;15.45;;
79019;SDS011;72857;44.740;37.770;2024-02-23T04:42:20;31.52;;;15.77;;
79019;SDS011;72857;44.740;37.770;2024-02-23T04:43:22;35.55;;;15.68;;
79019;SDS011;72857;44.740;37.770;2024-02-23T04:44:24;38.83;;;16.17;;
79019;SDS011;72857;44.740;37.770;2024-02-23T04:45:26;28.20;;;13.80;;
79019;SDS011;72857;44.740;37.770;2024-02-23T04:46:27;26.67;;;13.13;;
79019;SDS011;72857;44.740;37.770;2024-02-23T04:47:29;26.70;;;12.85;;
79019;SDS011;72857;44.740;37.770;2024-02-23T04:48:30;32.45;;;13.23;;
79019;SDS011;72857;44.740;37.770;2024-02-23T04:49:32;25.20;;;12.77;;
79019;SDS011;72857;44.740;37.770;2024-02-23T04:50:33;26.48;;;13.50;;
79019;SDS011;72857;44.740;37.770;2024-02-23T04:51:35;34.33;;;14.77;;
79019;SDS011;72857;44.740;37.770;2024-02-23T04:52:36;34.08;;;16.00;;
79019;SDS011;72857;44.740;37.770;2024-02-23T04:53:38;33.72;;;15.70;;
79019;SDS011;72857;44.740;37.770;2024-02-23T04:54:39;26.42;;;12.50;;
79019;SDS011;72857;44.740;37.770;2024-02-23T04:55:41;30.33;;;12.82;;
79019;SDS011;72857;44.740;37.770;2024-02-23T04:56:42;25.23;;;12.75;;
79019;SDS011;72857;44.740;37.770;2024-02-23T04:57:44;28.92;;;13.15;;
79019;SDS011;72857;44.740;37.770;2024-02-23T04:58:45;26.90;;;12.52;;
79019;SDS011;72857;44.740;37.770;2024-02-23T04:59:46;30.13;;;13.73;;
79019;SDS011;72857;44.740;37.770;2024-02-23T05:00:48;29.25;;;14.10;;
79019;SDS011;72857;44.740;37.770;2024-02-23T05:01:49;24.83;;;13.65;;
79019;SDS011;72857;44.740;37.770;2024-02-23T05:02:51;29.02;;;12.82;;
79019;SDS011;72857;44.740;37.770;2024-02-23T05:03:52;30.60;;;12.02;;
79019;SDS011;72857;44.740;37.770;2024-02-23T05:04:54;34.00;;;16.02;;
79019;SDS011;72857;44.740;37.770;2024-02-23T05:05:55;47.15;;;20.98;;
79019;SDS011;72857;44.740;37.770;2024-02-23T05:06:57;56.58;;;24.58;;
79019;SDS011;72857;44.740;37.770;2024-02-23T05:07:58;52.25;;;23.55;;
79019;SDS011;72857;44.740;37.770;2024-02-23T05:09:00;50.22;;;23.38;;
79019;SDS011;72857;44.740;37.770;2024-02-23T05:10:03;41.42;;;21.80;;
79019;SDS011;72857;44.740;37.770;2024-02-23T05:11:04;43.72;;;20.30;;
79019;SDS011;72857;44.740;37.770;2024-02-23T05:12:07;47.10;;;20.55;;
79019;SDS011;72857;44.740;37.770;2024-02-23T05:13:09;41.17;;;18.75;;
79019;SDS011;72857;44.740;37.770;2024-02-23T05:14:10;40.15;;;20.02;;
79019;SDS011;72857;44.740;37.770;2024-02-23T05:15:12;41.03;;;20.23;;
79019;SDS011;72857;44.740;37.770;2024-02-23T05:16:14;41.05;;;18.45;;
79019;SDS011;72857;44.740;37.770;2024-02-23T05:17:15;38.42;;;20.40;;
79019;SDS011;72857;44.740;37.770;2024-02-23T05:18:17;41.08;;;20.73;;
79019;SDS011;72857;44.740;37.770;2024-02-23T05:19:18;35.50;;;16.98;;
79019;SDS011;72857;44.740;37.770;2024-02-23T05:20:20;32.42;;;17.50;;
79019;SDS011;72857;44.740;37.770;2024-02-23T05:21:21;40.38;;;17.80;;
79019;SDS011;72857;44.740;37.770;2024-02-23T05:22:22;42.30;;;18.30;;
79019;SDS011;72857;44.740;37.770;2024-02-23T05:23:24;34.92;;;18.55;;
79019;SDS011;72857;44.740;37.770;2024-02-23T05:24:25;39.67;;;18.45;;
79019;SDS011;72857;44.740;37.770;2024-02-23T05:25:27;36.47;;;18.80;;
79019;SDS011;72857;44.740;37.770;2024-02-23T05:26:28;44.58;;;19.48;;
79019;SDS011;72857;44.740;37.770;2024-02-23T05:27:30;37.75;;;19.73;;
79019;SDS011;72857;44.740;37.770;2024-02-23T05:28:32;37.70;;;19.45;;
79019;SDS011;72857;44.740;37.770;2024-02-23T05:29:33;35.28;;;17.52;;
79019;SDS011;72857;44.740;37.770;2024-02-23T05:30:35;47.08;;;18.42;;
79019;SDS011;72857;44.740;37.770;2024-02-23T05:32:48;36.88;;;16.15;;
79019;SDS011;72857;44.740;37.770;2024-02-23T05:33:49;33.42;;;16.70;;
79019;SDS011;72857;44.740;37.770;2024-02-23T05:34:51;34.28;;;17.20;;
79019;SDS011;72857;44.740;37.770;2024-02-23T05:35:53;30.75;;;16.27;;
79019;SDS011;72857;44.740;37.770;2024-02-23T05:36:55;36.00;;;16.23;;
79019;SDS011;72857;44.740;37.770;2024-02-23T05:37:57;32.63;;;16.00;;
79019;SDS011;72857;44.740;37.770;2024-02-23T05:38:59;30.95;;;15.82;;
79019;SDS011;72857;44.740;37.770;2024-02-23T05:40:01;33.55;;;16.27;;
79019;SDS011;72857;44.740;37.770;2024-02-23T05:42:06;40.10;;;16.10;;
79019;SDS011;72857;44.740;37.770;2024-02-23T05:43:07;34.17;;;17.02;;
79019;SDS011;72857;44.740;37.770;2024-02-23T05:44:09;32.55;;;15.65;;
79019;SDS011;72857;44.740;37.770;2024-02-23T05:45:13;37.58;;;17.70;;
79019;SDS011;72857;44.740;37.770;2024-02-23T05:46:16;40.05;;;16.92;;
79019;SDS011;72857;44.740;37.770;2024-02-23T05:47:18;38.20;;;16.48;;
79019;SDS011;72857;44.740;37.770;2024-02-23T05:48:22;42.72;;;18.48;;
79019;SDS011;72857;44.740;37.770;2024-02-23T05:49:23;44.15;;;19.70;;
79019;SDS011;72857;44.740;37.770;2024-02-23T05:50:25;41.55;;;17.35;;
79019;SDS011;72857;44.740;37.770;2024-02-23T05:51:27;45.65;;;22.15;;
79019;SDS011;72857;44.740;37.770;2024-02-23T05:52:33;44.38;;;17.77;;
79019;SDS011;72857;44.740;37.770;2024-02-23T05:53:34;48.72;;;19.83;;
79019;SDS011;72857;44.740;37.770;2024-02-23T05:54:36;44.72;;;18.20;;
79019;SDS011;72857;44.740;37.770;2024-02-23T05:55:37;30.77;;;15.45;;
79019;SDS011;72857;44.740;37.770;2024-02-23T05:56:38;40.40;;;17.83;;
79019;SDS011;72857;44.740;37.770;2024-02-23T05:57:40;44.15;;;18.73;;
79019;SDS011;72857;44.740;37.770;2024-02-23T05:58:41;33.58;;;16.30;;